Lansing, OH (43934)

12:32 AM EDT on July 04, 2015 (GMT -0400)
Crawford Heights | | Change Station
CLOSE
Current Station
Personal Weather Station
Location: Martins Ferry, OH
Elevation: 1109 ft
Nearby Weather Stations

Elev 1109 ft 40.09 °N, 80.75 °W | Updated 10 minutes ago

Overcast
Overcast
65.8 °F
Feels Like 65.8 °F
N
2.2
Wind Variable Wind from ESE

Today
High -- | Low -- °F
--% Chance of Precip.
Yesterday
High -- | Low -- °F
Precip. -- in
5:59 AM 8:55 PM
Waning Gibbous, 94% visible
Pressure 29.89 in
Visibility 4.0 miles
Clouds Few 800 ft
Mostly Cloudy 2000 ft
Overcast 4500 ft
Dew Point 65 °F
Humidity 96%
Rainfall 0.00 in
Snow Depth Not available.
UV 0 out of 12
Pollen 3.70 out of 12
Air Quality Not available.
Flu Activity Not available.
SPECI KHLG 040418Z AUTO 02003KT 4SM -RA BR FEW008 BKN020 OVC045 19/18 A2989 RMK AO2 P0001 T01890178

More Conditions Fewer Conditions

Pressure 29.89 in
Visibility 4.0 miles
Clouds Few 800 ft
Mostly Cloudy 2000 ft
Overcast 4500 ft
Dew Point 65 °F
Humidity 96%
Rainfall 0.00 in
Snow Depth Not available.
UV 0 out of 12
Pollen 3.70 out of 12
Air Quality Not available.
Flu Activity Not available.
SPECI KHLG 040418Z AUTO 02003KT 4SM -RA BR FEW008 BKN020 OVC045 19/18 A2989 RMK AO2 P0001 T01890178

More Conditions Fewer Conditions

10-Day Weather Forecast

×

Almanac

Astronomy

Jul. 04, 2015 Rise Set
Actual Time
Civil Twilight
Nautical Twilight
Astronomical Twilight
Moon
Length of Visible Light
Length of Day
Tomorrow will be .
, % of the Moon is Illuminated

Today's Extremes

State Highs State Lows

Community

WunderPhotos

Upload Photos

1,834,931 photos uploaded!

WunderBlogs® & News

Nearby

Air Quality

  Air Quality AQ Index Pollutant
Not available.

Snow Depth

Station Depth Elevation

Earthquake Activity

City Distance Mag. Time & Date
Minimum magnitude displayed is 2.5.

Coastal Water Temperatures

Place Temperature

Stations

Nearby Weather Stations

Station Location Temp. Windchill Dew Point Humidity Wind Precip. Elev Updated Type